createdAt,value
2022-12-29T00:00:21.391Z,416.52
2022-12-29T00:00:53.707Z,415.95
2022-12-29T00:01:26.528Z,423.85
2022-12-29T00:01:58.805Z,422.90
2022-12-29T00:02:31.123Z,423.25
2022-12-29T00:03:03.696Z,412.50
2022-12-29T00:03:37.604Z,424.13
2022-12-29T00:04:15.059Z,417.40
2022-12-29T00:04:47.847Z,407.17
2022-12-29T00:05:20.198Z,403.48
2022-12-29T00:05:55.985Z,406.88
2022-12-29T00:06:28.589Z,408.02
2022-12-29T00:07:00.984Z,417.10
2022-12-29T00:07:33.329Z,412.20
2022-12-29T00:08:05.690Z,421.10
2022-12-29T00:08:41.402Z,411.33
2022-12-29T00:09:14.258Z,416.42
2022-12-29T00:09:46.656Z,424.10
2022-12-29T00:10:18.973Z,412.95
2022-12-29T00:10:51.256Z,423.15
2022-12-29T00:11:24.969Z,416.65
2022-12-29T00:11:57.717Z,413.50
2022-12-29T00:12:50.184Z,411.17
2022-12-29T00:13:45.356Z,422.48
2022-12-29T00:14:35.968Z,420.17
2022-12-29T00:15:27.680Z,428.48
2022-12-29T00:16:00.076Z,433.80
2022-12-29T00:16:33.334Z,430.52
2022-12-29T00:17:05.726Z,422.67
2022-12-29T00:17:38.367Z,424.05
2022-12-29T00:18:10.755Z,400.35
2022-12-29T00:18:43.094Z,403.10
2022-12-29T00:19:34.057Z,410.38
2022-12-29T00:20:25.102Z,408.02
2022-12-29T00:21:16.418Z,410.17
2022-12-29T00:22:08.858Z,405.38
2022-12-29T00:22:59.757Z,391.90
2022-12-29T00:23:50.884Z,408.98
2022-12-29T00:24:23.882Z,427.98
2022-12-29T00:24:56.297Z,414.67
2022-12-29T00:25:47.136Z,406.73
2022-12-29T00:26:38.631Z,408.23
2022-12-29T00:27:31.332Z,413.63
2022-12-29T00:28:24.163Z,413.00
2022-12-29T00:29:15.274Z,411.77
2022-12-29T00:30:06.323Z,415.50
2022-12-29T00:30:57.317Z,407.23
2022-12-29T00:31:48.033Z,412.90
2022-12-29T00:32:39.022Z,415.02
2022-12-29T00:33:36.977Z,405.25
2022-12-29T00:34:29.953Z,406.13
2022-12-29T00:35:11.297Z,411.27
2022-12-29T00:35:47.011Z,409.90
2022-12-29T00:36:25.220Z,410.27
2022-12-29T00:36:57.970Z,407.55
2022-12-29T00:37:49.070Z,415.67
2022-12-29T00:38:41.060Z,399.63
2022-12-29T00:39:36.400Z,391.55
2022-12-29T00:40:27.623Z,403.27
2022-12-29T00:41:18.453Z,405.88
2022-12-29T00:42:09.136Z,412.63
2022-12-29T00:43:00.003Z,420.73
2022-12-29T00:43:50.889Z,404.02
2022-12-29T00:44:23.299Z,405.75
2022-12-29T00:44:55.721Z,423.88
2022-12-29T00:45:28.234Z,417.23
2022-12-29T00:46:00.632Z,408.50
2022-12-29T00:46:36.285Z,415.98
2022-12-29T00:47:08.777Z,414.75
2022-12-29T00:47:41.175Z,409.73
2022-12-29T00:48:13.725Z,407.13
2022-12-29T00:49:05.102Z,393.77
2022-12-29T00:49:37.621Z,414.65
2022-12-29T00:50:10.051Z,396.05
2022-12-29T00:50:42.378Z,406.85
2022-12-29T00:51:14.762Z,403.17
2022-12-29T00:51:47.335Z,410.10
2022-12-29T00:52:19.865Z,405.77
2022-12-29T00:52:52.331Z,405.85
2022-12-29T00:53:24.836Z,408.73
2022-12-29T00:53:58.595Z,409.17
2022-12-29T00:54:32.736Z,401.55
2022-12-29T00:55:05.300Z,403.15
2022-12-29T00:55:39.145Z,410.65
2022-12-29T00:56:11.558Z,410.33
2022-12-29T00:56:43.911Z,399.73
2022-12-29T00:57:16.238Z,405.35
2022-12-29T00:57:50.366Z,404.40
2022-12-29T00:58:22.692Z,404.63
2022-12-29T00:58:54.968Z,408.38
2022-12-29T00:59:27.501Z,406.35
2022-12-29T00:59:59.868Z,397.10
2022-12-29T01:00:32.659Z,404.60
2022-12-29T01:01:06.119Z,401.55
2022-12-29T01:01:39.266Z,397.48
2022-12-29T01:02:12.098Z,402.90
2022-12-29T01:02:44.582Z,405.77
2022-12-29T01:03:17.115Z,400.58
2022-12-29T01:03:49.491Z,410.92
2022-12-29T01:04:22.441Z,408.95
2022-12-29T01:04:54.848Z,402.83
2022-12-29T01:05:27.200Z,403.33
2022-12-29T01:06:01.711Z,398.63
2022-12-29T01:06:34.478Z,402.42
2022-12-29T01:07:06.899Z,401.17
2022-12-29T01:07:39.543Z,395.05
2022-12-29T01:08:11.879Z,396.35
2022-12-29T01:08:44.237Z,398.35
2022-12-29T01:09:35.649Z,394.02
2022-12-29T01:10:10.883Z,403.50
2022-12-29T01:10:43.415Z,404.02
2022-12-29T01:11:15.793Z,403.90
2022-12-29T01:11:50.542Z,401.58
2022-12-29T01:12:41.630Z,406.63
2022-12-29T01:13:16.705Z,392.80
2022-12-29T01:13:49.277Z,390.50
2022-12-29T01:14:21.985Z,401.70
2022-12-29T01:14:54.879Z,403.98
2022-12-29T01:15:27.217Z,409.20
2022-12-29T01:15:59.946Z,405.27
2022-12-29T01:16:32.339Z,403.58
2022-12-29T01:17:05.048Z,404.27
2022-12-29T01:17:38.515Z,405.45
2022-12-29T01:18:10.858Z,407.52
2022-12-29T01:18:43.176Z,406.83
2022-12-29T01:19:16.127Z,401.23
2022-12-29T01:19:50.563Z,407.95
2022-12-29T01:20:22.878Z,404.13
2022-12-29T01:21:05.290Z,410.17
2022-12-29T01:21:37.624Z,409.63
2022-12-29T01:22:09.999Z,414.60
2022-12-29T01:22:43.677Z,412.35
2022-12-29T01:23:16.279Z,413.65
2022-12-29T01:23:51.047Z,399.80
2022-12-29T01:24:24.057Z,417.80
2022-12-29T01:24:56.793Z,411.55
2022-12-29T01:25:29.164Z,413.83
2022-12-29T01:26:11.342Z,413.30
2022-12-29T01:26:43.905Z,399.63
2022-12-29T01:27:16.366Z,403.50
2022-12-29T01:27:48.666Z,407.25
2022-12-29T01:28:25.955Z,405.38
2022-12-29T01:28:58.981Z,392.33
2022-12-29T01:29:31.343Z,396.23
2022-12-29T01:30:04.011Z,392.60
2022-12-29T01:30:38.092Z,402.58
2022-12-29T01:31:10.755Z,392.20
2022-12-29T01:31:43.169Z,411.98
2022-12-29T01:32:15.507Z,403.73
2022-12-29T01:32:47.867Z,405.55
2022-12-29T01:33:20.633Z,401.50
2022-12-29T01:33:53.184Z,399.63
2022-12-29T01:34:25.560Z,398.85
2022-12-29T01:34:57.832Z,400.08
2022-12-29T01:35:30.328Z,401.50
2022-12-29T01:36:04.712Z,402.33
2022-12-29T01:36:37.078Z,395.02
2022-12-29T01:37:09.436Z,392.50
2022-12-29T01:37:41.728Z,401.08
2022-12-29T01:38:14.126Z,404.45
2022-12-29T01:38:46.459Z,409.52
2022-12-29T01:39:18.816Z,410.10
2022-12-29T01:39:51.096Z,403.67
2022-12-29T01:40:23.405Z,406.65
2022-12-29T01:40:55.904Z,406.73
2022-12-29T01:41:28.251Z,403.60
2022-12-29T01:42:00.516Z,400.35
2022-12-29T01:42:33.015Z,405.48
2022-12-29T01:43:08.997Z,406.80
2022-12-29T01:43:41.288Z,408.48
2022-12-29T01:44:32.224Z,415.67
2022-12-29T01:45:11.610Z,409.15
2022-12-29T01:45:46.666Z,400.42
2022-12-29T01:46:34.666Z,406.23
2022-12-29T01:47:08.577Z,396.75
2022-12-29T01:47:59.705Z,387.65
2022-12-29T01:48:32.262Z,385.90
2022-12-29T01:49:37.364Z,399.38
2022-12-29T01:50:11.575Z,397.77
2022-12-29T01:50:51.146Z,396.15
2022-12-29T01:51:26.186Z,397.75
2022-12-29T01:52:00.235Z,397.65
2022-12-29T01:52:34.667Z,396.40
2022-12-29T01:53:07.841Z,399.50
2022-12-29T01:53:40.201Z,403.30
2022-12-29T01:54:15.056Z,397.95
2022-12-29T01:54:49.948Z,391.75
2022-12-29T01:55:22.736Z,398.02
2022-12-29T01:56:00.992Z,396.17
2022-12-29T01:56:34.217Z,397.83
2022-12-29T01:57:09.109Z,399.85
2022-12-29T01:57:44.545Z,393.27
2022-12-29T01:58:18.619Z,403.42
2022-12-29T01:58:55.867Z,405.83
2022-12-29T01:59:30.575Z,405.35
2022-12-29T02:00:05.631Z,403.20
2022-12-29T02:00:45.147Z,404.42
2022-12-29T02:01:19.580Z,406.00
2022-12-29T02:01:52.210Z,401.20
2022-12-29T02:02:25.285Z,404.02
2022-12-29T02:02:57.648Z,400.75
2022-12-29T02:03:33.252Z,407.75
2022-12-29T02:04:05.749Z,398.95
2022-12-29T02:04:41.009Z,407.17
2022-12-29T02:05:19.290Z,396.08
2022-12-29T02:05:57.661Z,400.85
2022-12-29T02:06:34.248Z,398.52
2022-12-29T02:07:10.129Z,405.20
2022-12-29T02:07:42.987Z,407.40
2022-12-29T02:08:16.593Z,396.80
2022-12-29T02:08:50.566Z,402.25
2022-12-29T02:09:23.300Z,402.60
2022-12-29T02:09:56.885Z,401.92
2022-12-29T02:10:31.033Z,399.58
2022-12-29T02:11:04.020Z,399.75
2022-12-29T02:11:39.945Z,400.67
2022-12-29T02:12:12.501Z,400.75
2022-12-29T02:12:46.029Z,394.40
2022-12-29T02:13:18.700Z,386.63
2022-12-29T02:13:51.022Z,408.17
2022-12-29T02:14:23.697Z,398.10
2022-12-29T02:14:58.332Z,389.90
2022-12-29T02:15:49.352Z,396.25
2022-12-29T02:16:40.212Z,399.73
2022-12-29T02:17:26.163Z,391.90
2022-12-29T02:18:04.681Z,396.23
2022-12-29T02:18:55.367Z,389.70
2022-12-29T02:19:37.533Z,384.70
2022-12-29T02:20:29.934Z,389.98
2022-12-29T02:21:20.826Z,401.40
2022-12-29T02:22:01.484Z,390.80
2022-12-29T02:22:53.606Z,386.13
2022-12-29T02:23:28.965Z,387.95
2022-12-29T02:24:19.820Z,395.02
2022-12-29T02:25:01.003Z,396.75
2022-12-29T02:25:48.759Z,387.42
2022-12-29T02:26:39.980Z,383.55
2022-12-29T02:27:42.335Z,388.38
2022-12-29T02:28:33.417Z,392.25
2022-12-29T02:29:20.983Z,374.25
2022-12-29T02:30:11.940Z,382.73
2022-12-29T02:30:44.921Z,375.83
2022-12-29T02:31:23.315Z,396.23
2022-12-29T02:31:56.009Z,394.85
2022-12-29T02:32:46.812Z,397.63
2022-12-29T02:33:45.325Z,387.83
2022-12-29T02:34:43.317Z,392.35
2022-12-29T02:35:29.490Z,393.88
2022-12-29T02:36:11.528Z,401.08
2022-12-29T02:36:51.633Z,400.38
2022-12-29T02:37:27.784Z,392.42
2022-12-29T02:38:15.289Z,394.75
2022-12-29T02:38:50.324Z,387.52
2022-12-29T02:39:25.449Z,398.35
2022-12-29T02:40:24.259Z,408.00
2022-12-29T02:41:03.157Z,395.48
2022-12-29T02:41:43.903Z,392.10
2022-12-29T02:42:38.358Z,399.13
2022-12-29T02:43:12.191Z,388.63
2022-12-29T02:43:55.423Z,384.17
2022-12-29T02:44:36.361Z,386.45
2022-12-29T02:45:18.667Z,389.90
2022-12-29T02:46:05.673Z,385.70
2022-12-29T02:46:42.975Z,377.02
2022-12-29T02:47:17.870Z,389.40
2022-12-29T02:48:24.092Z,393.13
2022-12-29T02:49:05.381Z,391.63
2022-12-29T02:49:41.110Z,381.92
2022-12-29T02:50:13.364Z,393.40
2022-12-29T02:50:59.421Z,398.77
2022-12-29T02:51:45.355Z,382.02
2022-12-29T02:52:21.300Z,388.35
2022-12-29T02:52:59.969Z,389.05
2022-12-29T02:53:52.396Z,389.63
2022-12-29T02:54:43.406Z,381.48
2022-12-29T02:55:16.668Z,382.55
2022-12-29T02:55:50.166Z,397.50
2022-12-29T02:56:22.899Z,401.10
2022-12-29T02:56:55.476Z,388.17
2022-12-29T02:57:27.768Z,396.38
2022-12-29T02:58:19.101Z,400.52
2022-12-29T02:58:51.515Z,398.10
2022-12-29T02:59:23.879Z,391.17
2022-12-29T02:59:56.807Z,384.67
2022-12-29T03:00:29.256Z,391.45
2022-12-29T03:01:25.164Z,392.48
2022-12-29T03:02:17.888Z,379.70
2022-12-29T03:02:56.858Z,388.05
2022-12-29T03:03:32.092Z,392.17
2022-12-29T03:04:31.332Z,385.33
2022-12-29T03:05:28.134Z,383.25
2022-12-29T03:06:13.605Z,379.85
2022-12-29T03:07:05.159Z,377.10
2022-12-29T03:07:55.767Z,387.30
2022-12-29T03:08:33.122Z,375.15
2022-12-29T03:09:19.112Z,382.00
2022-12-29T03:09:57.965Z,375.73
2022-12-29T03:10:38.716Z,382.05
2022-12-29T03:11:33.341Z,385.42
2022-12-29T03:12:16.194Z,376.23
2022-12-29T03:13:12.933Z,373.55
2022-12-29T03:14:09.690Z,384.90
2022-12-29T03:15:15.878Z,395.85
2022-12-29T03:16:07.404Z,397.35
2022-12-29T03:16:51.048Z,391.85
2022-12-29T03:17:29.258Z,374.98
2022-12-29T03:18:19.792Z,394.63
2022-12-29T03:18:52.573Z,382.80
2022-12-29T03:19:33.922Z,380.80
2022-12-29T03:20:11.496Z,381.05
2022-12-29T03:20:52.950Z,384.33
2022-12-29T03:22:01.411Z,387.75
2022-12-29T03:22:39.644Z,380.20
2022-12-29T03:23:15.784Z,381.02
2022-12-29T03:23:49.689Z,385.23
2022-12-29T03:24:25.442Z,380.08
2022-12-29T03:25:00.613Z,392.60
2022-12-29T03:25:38.670Z,389.52
2022-12-29T03:26:15.816Z,391.10
2022-12-29T03:26:50.599Z,392.80
2022-12-29T03:27:27.610Z,392.98
2022-12-29T03:28:02.788Z,396.02
2022-12-29T03:28:42.145Z,394.33
2022-12-29T03:29:16.381Z,391.60
2022-12-29T03:29:56.218Z,393.90
2022-12-29T03:30:30.123Z,388.85
2022-12-29T03:31:04.390Z,395.25
2022-12-29T03:31:38.297Z,395.02
2022-12-29T03:32:12.940Z,394.13
2022-12-29T03:32:47.413Z,390.08
2022-12-29T03:33:24.347Z,399.85
2022-12-29T03:33:58.095Z,390.63
2022-12-29T03:34:31.241Z,394.15
2022-12-29T03:35:05.490Z,398.05
2022-12-29T03:35:38.894Z,397.40
2022-12-29T03:36:24.604Z,396.05
2022-12-29T03:37:17.326Z,396.27
2022-12-29T03:37:55.095Z,394.30
2022-12-29T03:38:35.615Z,394.17
2022-12-29T03:39:40.293Z,388.00
2022-12-29T03:40:12.919Z,400.42
2022-12-29T03:40:50.858Z,396.05
2022-12-29T03:41:25.523Z,397.17
2022-12-29T03:42:00.778Z,389.98
2022-12-29T03:42:34.791Z,389.02
2022-12-29T03:43:07.850Z,396.75
2022-12-29T03:43:42.219Z,388.52
2022-12-29T03:44:15.238Z,397.15
2022-12-29T03:44:47.707Z,392.63
2022-12-29T03:45:21.639Z,395.75
2022-12-29T03:45:54.226Z,391.13
2022-12-29T03:46:26.830Z,390.50
2022-12-29T03:46:59.611Z,395.58
2022-12-29T03:47:31.989Z,392.55
2022-12-29T03:48:04.426Z,397.50
2022-12-29T03:48:37.595Z,392.50
2022-12-29T03:49:10.107Z,394.55
2022-12-29T03:49:42.395Z,394.42
2022-12-29T03:50:14.909Z,391.90
2022-12-29T03:50:48.454Z,390.05
2022-12-29T03:51:21.469Z,394.45
2022-12-29T03:51:54.840Z,393.02
2022-12-29T03:52:28.266Z,391.13
2022-12-29T03:53:00.925Z,393.05
2022-12-29T03:53:33.937Z,393.95
2022-12-29T03:54:06.707Z,397.13
2022-12-29T03:54:39.400Z,390.65
2022-12-29T03:55:12.445Z,394.55
2022-12-29T03:55:45.835Z,392.50
2022-12-29T03:56:18.386Z,394.25
2022-12-29T03:56:51.028Z,386.90
2022-12-29T03:57:30.603Z,395.65
2022-12-29T03:58:06.886Z,396.13
2022-12-29T03:58:59.467Z,388.52
2022-12-29T03:59:38.035Z,389.38
2022-12-29T04:00:10.703Z,391.40
2022-12-29T04:00:51.393Z,399.13
2022-12-29T04:01:24.814Z,398.83
2022-12-29T04:01:57.479Z,395.52
2022-12-29T04:02:30.558Z,398.88
2022-12-29T04:03:03.331Z,393.35
2022-12-29T04:03:36.030Z,385.75
2022-12-29T04:04:08.512Z,387.23
2022-12-29T04:04:41.128Z,394.05
2022-12-29T04:05:13.511Z,387.40
2022-12-29T04:05:46.778Z,388.02
2022-12-29T04:06:19.062Z,388.52
2022-12-29T04:06:55.891Z,383.90
2022-12-29T04:07:28.293Z,394.08
2022-12-29T04:08:01.199Z,392.67
2022-12-29T04:08:33.634Z,385.33
2022-12-29T04:09:06.389Z,386.60
2022-12-29T04:09:45.170Z,390.35
2022-12-29T04:10:23.206Z,391.52
2022-12-29T04:10:58.947Z,393.40
2022-12-29T04:11:33.276Z,391.40
2022-12-29T04:12:08.050Z,394.95
2022-12-29T04:12:42.864Z,393.95
2022-12-29T04:13:15.408Z,396.33
2022-12-29T04:13:47.817Z,386.17
2022-12-29T04:14:24.390Z,393.25
2022-12-29T04:14:58.555Z,393.30
2022-12-29T04:15:31.155Z,390.90
2022-12-29T04:16:03.931Z,391.13
2022-12-29T04:16:40.078Z,387.80
2022-12-29T04:17:13.574Z,397.85
2022-12-29T04:17:47.859Z,392.20
2022-12-29T04:18:20.297Z,393.30
2022-12-29T04:18:52.804Z,401.67
2022-12-29T04:19:25.153Z,397.33
2022-12-29T04:20:17.489Z,401.15
2022-12-29T04:21:02.186Z,391.65
2022-12-29T04:21:35.692Z,401.42
2022-12-29T04:22:08.281Z,403.17
2022-12-29T04:22:41.127Z,403.05
2022-12-29T04:23:13.639Z,400.00
2022-12-29T04:23:46.922Z,407.27
2022-12-29T04:24:20.573Z,407.20
2022-12-29T04:24:55.551Z,403.00
2022-12-29T04:25:30.258Z,403.73
2022-12-29T04:26:04.191Z,407.73
2022-12-29T04:26:37.118Z,393.02
2022-12-29T04:27:31.502Z,408.02
2022-12-29T04:28:23.294Z,397.38
2022-12-29T04:29:25.256Z,388.30
2022-12-29T04:30:16.780Z,397.38
2022-12-29T04:31:13.677Z,384.52
2022-12-29T04:31:48.449Z,401.83
2022-12-29T04:32:20.836Z,401.95
2022-12-29T04:32:55.848Z,406.58
2022-12-29T04:33:29.442Z,405.70
2022-12-29T04:34:02.074Z,399.10
2022-12-29T04:34:34.908Z,397.63
2022-12-29T04:35:07.376Z,395.88
2022-12-29T04:35:40.189Z,389.83
2022-12-29T04:36:12.519Z,398.48
2022-12-29T04:36:45.118Z,391.33
2022-12-29T04:37:18.527Z,387.95
2022-12-29T04:37:50.897Z,396.67
2022-12-29T04:38:24.067Z,393.35
2022-12-29T04:38:56.950Z,403.00
2022-12-29T04:39:29.284Z,394.88
2022-12-29T04:40:01.689Z,401.83
2022-12-29T04:40:34.107Z,404.67
2022-12-29T04:41:06.926Z,397.88
2022-12-29T04:41:41.428Z,406.20
2022-12-29T04:42:18.407Z,416.10
2022-12-29T04:42:51.570Z,423.92
2022-12-29T04:43:25.720Z,407.40
2022-12-29T04:44:18.665Z,397.70
2022-12-29T04:45:04.910Z,398.95
2022-12-29T04:45:56.484Z,403.15
2022-12-29T04:46:41.726Z,411.70
2022-12-29T04:47:18.129Z,413.15
2022-12-29T04:48:12.387Z,397.80
2022-12-29T04:48:52.370Z,395.10
2022-12-29T04:49:43.229Z,398.42
2022-12-29T04:50:33.907Z,404.67
2022-12-29T04:51:14.144Z,398.40
2022-12-29T04:51:47.671Z,397.27
2022-12-29T04:52:21.971Z,411.30
2022-12-29T04:52:54.617Z,409.45
2022-12-29T04:53:27.130Z,415.52
2022-12-29T04:54:01.392Z,413.33
2022-12-29T04:54:34.696Z,411.75
2022-12-29T04:55:18.029Z,406.30
2022-12-29T04:55:51.998Z,399.40
2022-12-29T04:56:24.375Z,408.80
2022-12-29T04:56:56.701Z,399.02
2022-12-29T04:57:30.381Z,415.85
2022-12-29T04:58:05.166Z,409.33
2022-12-29T04:58:39.197Z,415.88
2022-12-29T04:59:11.597Z,415.30
2022-12-29T04:59:43.958Z,409.30
2022-12-29T05:00:16.384Z,410.60
2022-12-29T05:00:48.756Z,410.90
2022-12-29T05:01:21.221Z,404.23
2022-12-29T05:01:53.869Z,414.75
2022-12-29T05:02:26.479Z,399.48
2022-12-29T05:03:00.673Z,402.17
2022-12-29T05:03:34.040Z,401.90
2022-12-29T05:04:06.493Z,393.60
2022-12-29T05:04:38.854Z,399.38
2022-12-29T05:05:12.375Z,402.05
2022-12-29T05:05:48.405Z,401.08
2022-12-29T05:06:21.316Z,403.85
2022-12-29T05:06:55.283Z,402.70
2022-12-29T05:07:28.027Z,404.52
2022-12-29T05:08:01.368Z,410.15
2022-12-29T05:08:33.670Z,407.17
2022-12-29T05:09:08.026Z,402.25
2022-12-29T05:09:41.160Z,405.00
2022-12-29T05:10:13.501Z,402.88
2022-12-29T05:10:47.014Z,400.35
2022-12-29T05:11:20.931Z,401.10
2022-12-29T05:11:55.635Z,407.27
2022-12-29T05:12:31.355Z,408.80
2022-12-29T05:13:05.644Z,404.73
2022-12-29T05:13:38.108Z,414.25
2022-12-29T05:14:10.584Z,411.20
2022-12-29T05:14:43.722Z,408.35
2022-12-29T05:15:18.172Z,410.92
2022-12-29T05:15:52.355Z,407.40
2022-12-29T05:16:24.891Z,407.23
2022-12-29T05:16:58.571Z,405.63
2022-12-29T05:17:32.166Z,410.92
2022-12-29T05:18:04.509Z,409.85
2022-12-29T05:18:36.824Z,421.95
2022-12-29T05:19:09.732Z,416.92
2022-12-29T05:19:42.404Z,408.75
2022-12-29T05:20:14.915Z,417.25
2022-12-29T05:20:48.112Z,417.77
2022-12-29T05:21:20.803Z,410.90
2022-12-29T05:21:55.390Z,419.77
2022-12-29T05:22:27.975Z,413.80
2022-12-29T05:23:02.530Z,413.67
2022-12-29T05:23:34.953Z,411.15
2022-12-29T05:24:11.470Z,408.00
2022-12-29T05:24:43.792Z,411.52
2022-12-29T05:25:17.134Z,411.45
2022-12-29T05:26:16.239Z,397.45
2022-12-29T05:27:01.955Z,399.95
2022-12-29T05:27:44.138Z,406.35
2022-12-29T05:28:25.888Z,404.20
2022-12-29T05:29:03.841Z,413.83
2022-12-29T05:29:36.367Z,409.80
2022-12-29T05:30:09.112Z,408.00
2022-12-29T05:30:41.905Z,405.33
2022-12-29T05:31:14.365Z,403.08
2022-12-29T05:31:46.841Z,403.08
2022-12-29T05:32:19.436Z,413.63
2022-12-29T05:32:51.891Z,407.92
2022-12-29T05:33:24.918Z,409.95
2022-12-29T05:33:57.787Z,405.08
2022-12-29T05:34:33.220Z,402.65
2022-12-29T05:35:05.949Z,411.60
2022-12-29T05:35:39.520Z,407.33
2022-12-29T05:36:12.024Z,410.58
2022-12-29T05:36:48.434Z,405.13
2022-12-29T05:37:21.440Z,405.15
2022-12-29T05:37:54.169Z,400.05
2022-12-29T05:38:26.618Z,409.42
2022-12-29T05:38:59.021Z,411.85
2022-12-29T05:39:31.828Z,408.08
2022-12-29T05:40:07.684Z,455.77
2022-12-29T05:40:40.609Z,439.67
2022-12-29T05:41:23.756Z,415.08
2022-12-29T05:42:19.242Z,423.85
2022-12-29T05:42:59.854Z,420.38
2022-12-29T05:43:41.130Z,419.90
2022-12-29T05:44:32.031Z,418.60
2022-12-29T05:45:27.180Z,416.20
2022-12-29T05:46:22.060Z,406.63
2022-12-29T05:47:09.583Z,407.42
2022-12-29T05:47:51.685Z,411.25
2022-12-29T05:48:38.219Z,401.15
2022-12-29T05:49:31.658Z,409.55
2022-12-29T05:50:11.150Z,416.05
2022-12-29T05:51:01.994Z,412.42
2022-12-29T05:51:51.840Z,395.67
2022-12-29T05:52:24.229Z,395.33
2022-12-29T05:52:56.608Z,411.63
2022-12-29T05:53:28.965Z,409.73
2022-12-29T05:54:02.413Z,424.30
2022-12-29T05:54:34.852Z,421.55
2022-12-29T05:55:12.983Z,411.15
2022-12-29T05:55:48.969Z,415.95
2022-12-29T05:56:22.393Z,411.25
2022-12-29T05:57:01.400Z,407.17
2022-12-29T05:57:34.411Z,412.60
2022-12-29T05:58:16.211Z,413.88
2022-12-29T05:58:49.888Z,413.70
2022-12-29T05:59:22.220Z,408.13
2022-12-29T05:59:54.915Z,401.70
2022-12-29T06:00:27.618Z,407.27
2022-12-29T06:01:00.160Z,415.27
2022-12-29T06:01:32.839Z,413.50
2022-12-29T06:02:05.599Z,423.25
2022-12-29T06:02:38.944Z,422.20
2022-12-29T06:03:12.177Z,422.80
2022-12-29T06:03:48.431Z,414.60
2022-12-29T06:04:21.485Z,414.55
2022-12-29T06:04:53.881Z,418.33
2022-12-29T06:05:26.849Z,421.63
2022-12-29T06:05:59.136Z,424.50
2022-12-29T06:06:32.708Z,421.40
2022-12-29T06:07:05.600Z,414.52
2022-12-29T06:07:55.880Z,412.83
2022-12-29T06:08:29.231Z,420.80
2022-12-29T06:09:01.768Z,422.05
2022-12-29T06:09:35.080Z,420.88
2022-12-29T06:10:08.748Z,422.50
2022-12-29T06:10:48.889Z,427.33
2022-12-29T06:11:21.599Z,416.40
2022-12-29T06:12:01.023Z,414.33
2022-12-29T06:12:33.406Z,419.10
2022-12-29T06:13:06.745Z,412.42
2022-12-29T06:13:43.736Z,408.88
2022-12-29T06:14:16.354Z,405.40
2022-12-29T06:14:49.361Z,412.55
2022-12-29T06:15:22.144Z,414.02
2022-12-29T06:15:56.227Z,421.92
2022-12-29T06:16:31.492Z,417.10
2022-12-29T06:17:06.899Z,416.42
2022-12-29T06:17:40.825Z,421.55
2022-12-29T06:18:19.390Z,417.92
2022-12-29T06:18:52.193Z,402.98
2022-12-29T06:19:24.557Z,416.00
2022-12-29T06:19:56.962Z,420.17
2022-12-29T06:20:29.610Z,422.55
2022-12-29T06:21:02.695Z,417.15
2022-12-29T06:21:35.165Z,416.85
2022-12-29T06:22:09.122Z,411.48
2022-12-29T06:22:41.891Z,416.67
2022-12-29T06:23:14.537Z,415.23
2022-12-29T06:23:46.917Z,416.10
2022-12-29T06:24:19.376Z,416.20
2022-12-29T06:24:51.689Z,419.00
2022-12-29T06:25:24.063Z,415.08
2022-12-29T06:25:56.542Z,419.20
2022-12-29T06:26:29.025Z,421.23
2022-12-29T06:27:02.304Z,419.60
2022-12-29T06:27:34.720Z,417.83
2022-12-29T06:28:07.913Z,416.67
2022-12-29T06:28:42.383Z,418.08
2022-12-29T06:29:18.224Z,423.52
2022-12-29T06:29:51.017Z,418.48
2022-12-29T06:30:23.355Z,412.75
2022-12-29T06:30:55.681Z,418.23
2022-12-29T06:31:28.084Z,424.40
2022-12-29T06:32:00.536Z,428.85
2022-12-29T06:32:34.488Z,424.35
2022-12-29T06:33:09.872Z,431.10
2022-12-29T06:33:42.259Z,424.08
2022-12-29T06:34:14.617Z,424.42
2022-12-29T06:34:47.067Z,425.98
2022-12-29T06:35:19.668Z,425.30
2022-12-29T06:35:55.188Z,423.50
2022-12-29T06:36:27.626Z,418.08
2022-12-29T06:37:00.236Z,417.42
2022-12-29T06:37:34.262Z,429.95
2022-12-29T06:38:07.147Z,428.50
2022-12-29T06:38:39.504Z,430.23
2022-12-29T06:39:12.025Z,445.40
2022-12-29T06:39:44.732Z,449.88
2022-12-29T06:40:18.547Z,452.30
2022-12-29T06:41:22.117Z,440.00
2022-12-29T06:42:16.171Z,435.40
2022-12-29T06:42:58.344Z,429.38
2022-12-29T06:44:04.240Z,422.85
2022-12-29T06:44:55.321Z,422.33
2022-12-29T06:45:27.681Z,416.73
2022-12-29T06:46:00.171Z,430.50
2022-12-29T06:46:32.741Z,425.90
2022-12-29T06:47:05.163Z,423.92
2022-12-29T06:47:37.513Z,423.95
2022-12-29T06:48:10.182Z,422.73
2022-12-29T06:48:43.440Z,422.95
2022-12-29T06:49:15.763Z,426.00
2022-12-29T06:49:48.111Z,425.35
2022-12-29T06:50:20.510Z,429.55
2022-12-29T06:50:53.159Z,423.95
2022-12-29T06:51:25.496Z,424.25
2022-12-29T06:51:59.824Z,424.05
2022-12-29T06:52:32.664Z,417.98
2022-12-29T06:53:05.263Z,409.33
2022-12-29T06:53:37.639Z,422.52
2022-12-29T06:54:10.215Z,418.65
2022-12-29T06:54:42.548Z,419.55
2022-12-29T06:55:15.356Z,418.60
2022-12-29T06:55:47.693Z,419.60
2022-12-29T06:56:20.091Z,416.85
2022-12-29T06:56:54.766Z,417.85
2022-12-29T06:57:27.789Z,417.90
2022-12-29T06:58:00.516Z,415.13
2022-12-29T06:58:32.850Z,417.50
2022-12-29T06:59:08.028Z,416.98
2022-12-29T06:59:41.001Z,418.88
2022-12-29T07:00:15.884Z,420.90
2022-12-29T07:00:52.294Z,416.92
2022-12-29T07:01:25.046Z,413.98
2022-12-29T07:01:57.536Z,413.23
2022-12-29T07:02:30.085Z,414.77
2022-12-29T07:03:03.416Z,413.30
2022-12-29T07:03:36.044Z,414.67
2022-12-29T07:04:08.545Z,416.98
2022-12-29T07:04:41.256Z,411.48
2022-12-29T07:05:14.859Z,409.80
2022-12-29T07:05:47.263Z,415.20
2022-12-29T07:06:21.333Z,418.65
2022-12-29T07:06:53.707Z,417.20
2022-12-29T07:07:28.136Z,411.42
2022-12-29T07:08:01.197Z,418.98
2022-12-29T07:08:34.501Z,411.83
2022-12-29T07:09:06.831Z,415.50
2022-12-29T07:09:41.262Z,412.23
2022-12-29T07:10:14.332Z,414.80
2022-12-29T07:10:47.252Z,412.40
2022-12-29T07:11:19.667Z,415.13
2022-12-29T07:11:51.992Z,413.92
2022-12-29T07:12:24.334Z,414.77
2022-12-29T07:12:56.818Z,413.85
2022-12-29T07:13:29.295Z,413.67
2022-12-29T07:14:02.396Z,418.13
2022-12-29T07:14:42.339Z,416.30
2022-12-29T07:15:47.601Z,411.85
2022-12-29T07:16:20.192Z,412.65
2022-12-29T07:16:52.600Z,412.73
2022-12-29T07:17:25.060Z,414.85
2022-12-29T07:17:57.787Z,413.67
2022-12-29T07:18:31.354Z,420.05
2022-12-29T07:19:03.829Z,414.50
2022-12-29T07:19:36.281Z,420.88
2022-12-29T07:20:08.934Z,419.05
2022-12-29T07:20:41.224Z,418.30
2022-12-29T07:21:14.132Z,413.58
2022-12-29T07:21:47.149Z,415.50
2022-12-29T07:22:19.488Z,414.65
2022-12-29T07:22:51.801Z,413.38
2022-12-29T07:23:24.109Z,418.20
2022-12-29T07:23:56.659Z,414.35
2022-12-29T07:24:28.988Z,416.30
2022-12-29T07:25:01.311Z,411.25
2022-12-29T07:25:33.749Z,401.23
2022-12-29T07:26:07.207Z,400.20
2022-12-29T07:26:39.569Z,403.27
2022-12-29T07:27:12.185Z,399.25
2022-12-29T07:27:44.488Z,402.33
2022-12-29T07:28:16.851Z,407.80
2022-12-29T07:28:49.839Z,403.23
2022-12-29T07:29:22.293Z,403.65
2022-12-29T07:29:54.569Z,401.38
2022-12-29T07:30:26.920Z,403.63
2022-12-29T07:30:59.762Z,407.02
2022-12-29T07:31:32.206Z,408.52
2022-12-29T07:32:04.829Z,404.70
2022-12-29T07:32:37.224Z,399.98
2022-12-29T07:33:09.541Z,404.02
2022-12-29T07:33:41.820Z,410.33
2022-12-29T07:34:14.161Z,408.35
2022-12-29T07:34:48.786Z,404.58
2022-12-29T07:35:21.075Z,403.55
2022-12-29T07:35:54.002Z,406.50
2022-12-29T07:36:32.402Z,411.10
2022-12-29T07:37:06.798Z,405.65
2022-12-29T07:37:39.800Z,409.90
2022-12-29T07:38:12.141Z,404.15
2022-12-29T07:38:44.936Z,407.42
2022-12-29T07:39:17.322Z,410.77